sensor_id;sensor_type;location;lat;lon;timestamp;pressure;altitude;pressure_sealevel;temperature;humidity
47274;BME280;33007;49.082;19.306;2022-09-09T00:01:49;95827.59;;;17.09;100.00
47274;BME280;33007;49.082;19.306;2022-09-09T00:04:30;95831.19;;;16.98;100.00
47274;BME280;33007;49.082;19.306;2022-09-09T00:10:00;95820.38;;;16.82;100.00
47274;BME280;33007;49.082;19.306;2022-09-09T00:15:46;95822.84;;;16.85;100.00
47274;BME280;33007;49.082;19.306;2022-09-09T00:18:57;95841.94;;;16.96;100.00
47274;BME280;33007;49.082;19.306;2022-09-09T00:21:33;95838.41;;;17.01;100.00
47274;BME280;33007;49.082;19.306;2022-09-09T00:24:08;95838.56;;;16.85;100.00
47274;BME280;33007;49.082;19.306;2022-09-09T00:26:51;95838.84;;;16.81;100.00
47274;BME280;33007;49.082;19.306;2022-09-09T00:29:35;95832.44;;;16.73;100.00
47274;BME280;33007;49.082;19.306;2022-09-09T00:32:17;95847.00;;;16.87;100.00
47274;BME280;33007;49.082;19.306;2022-09-09T00:34:57;95846.84;;;16.79;100.00
47274;BME280;33007;49.082;19.306;2022-09-09T00:37:26;95848.88;;;16.73;100.00
47274;BME280;33007;49.082;19.306;2022-09-09T00:39:54;95833.94;;;16.68;100.00
47274;BME280;33007;49.082;19.306;2022-09-09T00:42:29;95829.19;;;16.69;100.00
47274;BME280;33007;49.082;19.306;2022-09-09T00:47:53;95844.63;;;16.72;100.00
47274;BME280;33007;49.082;19.306;2022-09-09T00:50:49;95845.69;;;16.63;100.00
47274;BME280;33007;49.082;19.306;2022-09-09T00:56:14;95839.94;;;16.61;100.00
47274;BME280;33007;49.082;19.306;2022-09-09T01:01:35;95838.28;;;16.53;100.00
47274;BME280;33007;49.082;19.306;2022-09-09T01:04:03;95840.47;;;16.60;100.00
47274;BME280;33007;49.082;19.306;2022-09-09T01:06:36;95843.50;;;16.50;100.00
47274;BME280;33007;49.082;19.306;2022-09-09T01:17:05;95872.06;;;16.72;100.00
47274;BME280;33007;49.082;19.306;2022-09-09T01:19:38;95870.56;;;16.65;100.00
47274;BME280;33007;49.082;19.306;2022-09-09T01:22:40;95878.06;;;16.65;100.00
47274;BME280;33007;49.082;19.306;2022-09-09T01:28:02;95880.63;;;16.57;100.00
47274;BME280;33007;49.082;19.306;2022-09-09T01:30:30;95885.34;;;16.57;100.00
47274;BME280;33007;49.082;19.306;2022-09-09T01:32:58;95873.47;;;16.43;100.00
47274;BME280;33007;49.082;19.306;2022-09-09T01:35:42;95866.63;;;16.25;100.00
47274;BME280;33007;49.082;19.306;2022-09-09T01:38:10;95867.41;;;16.14;100.00
47274;BME280;33007;49.082;19.306;2022-09-09T01:40:37;95875.84;;;16.22;100.00
47274;BME280;33007;49.082;19.306;2022-09-09T01:43:03;95866.66;;;16.14;100.00
47274;BME280;33007;49.082;19.306;2022-09-09T01:45:29;95867.16;;;16.12;100.00
47274;BME280;33007;49.082;19.306;2022-09-09T01:47:56;95880.81;;;16.18;100.00
47274;BME280;33007;49.082;19.306;2022-09-09T01:50:22;95896.78;;;16.14;100.00
47274;BME280;33007;49.082;19.306;2022-09-09T01:52:58;95877.47;;;15.89;100.00
47274;BME280;33007;49.082;19.306;2022-09-09T01:55:38;95889.91;;;15.96;100.00
47274;BME280;33007;49.082;19.306;2022-09-09T02:00:43;95870.56;;;15.83;100.00
47274;BME280;33007;49.082;19.306;2022-09-09T02:08:47;95893.59;;;16.04;100.00
47274;BME280;33007;49.082;19.306;2022-09-09T02:11:19;95888.41;;;15.95;100.00
47274;BME280;33007;49.082;19.306;2022-09-09T02:13:47;95899.13;;;15.93;100.00
47274;BME280;33007;49.082;19.306;2022-09-09T02:19:08;95897.41;;;15.84;100.00
47274;BME280;33007;49.082;19.306;2022-09-09T02:21:39;95870.59;;;15.71;100.00
47274;BME280;33007;49.082;19.306;2022-09-09T02:24:07;95877.03;;;15.80;100.00
47274;BME280;33007;49.082;19.306;2022-09-09T02:26:39;95893.41;;;15.85;100.00
47274;BME280;33007;49.082;19.306;2022-09-09T02:29:08;95891.97;;;15.73;100.00
47274;BME280;33007;49.082;19.306;2022-09-09T02:31:36;95892.22;;;15.69;100.00
47274;BME280;33007;49.082;19.306;2022-09-09T02:34:05;95898.97;;;15.68;100.00
47274;BME280;33007;49.082;19.306;2022-09-09T02:36:37;95896.25;;;15.63;100.00
47274;BME280;33007;49.082;19.306;2022-09-09T02:39:08;95902.44;;;15.58;100.00
47274;BME280;33007;49.082;19.306;2022-09-09T02:41:37;95897.22;;;15.49;100.00
47274;BME280;33007;49.082;19.306;2022-09-09T02:44:08;95898.72;;;15.44;100.00
47274;BME280;33007;49.082;19.306;2022-09-09T02:46:48;95904.94;;;15.39;100.00
47274;BME280;33007;49.082;19.306;2022-09-09T02:52:08;95926.31;;;15.57;100.00
47274;BME280;33007;49.082;19.306;2022-09-09T02:54:38;95929.09;;;15.46;100.00
47274;BME280;33007;49.082;19.306;2022-09-09T02:57:30;95925.88;;;15.36;100.00
47274;BME280;33007;49.082;19.306;2022-09-09T02:59:58;95943.03;;;15.31;100.00
47274;BME280;33007;49.082;19.306;2022-09-09T03:02:24;95932.59;;;15.13;100.00
47274;BME280;33007;49.082;19.306;2022-09-09T03:04:50;95939.03;;;15.32;100.00
47274;BME280;33007;49.082;19.306;2022-09-09T03:07:20;95945.75;;;15.31;100.00
47274;BME280;33007;49.082;19.306;2022-09-09T03:09:46;95924.88;;;15.17;100.00
47274;BME280;33007;49.082;19.306;2022-09-09T03:12:11;95940.53;;;15.39;100.00
47274;BME280;33007;49.082;19.306;2022-09-09T03:14:37;95915.94;;;15.11;100.00
47274;BME280;33007;49.082;19.306;2022-09-09T03:17:04;95951.97;;;15.32;100.00
47274;BME280;33007;49.082;19.306;2022-09-09T03:19:30;95956.94;;;15.28;100.00
47274;BME280;33007;49.082;19.306;2022-09-09T03:21:57;95943.28;;;15.11;100.00
47274;BME280;33007;49.082;19.306;2022-09-09T03:24:23;95935.06;;;15.11;100.00
47274;BME280;33007;49.082;19.306;2022-09-09T03:26:49;95942.28;;;15.08;100.00
47274;BME280;33007;49.082;19.306;2022-09-09T03:29:16;95944.75;;;15.12;100.00
47274;BME280;33007;49.082;19.306;2022-09-09T03:31:43;95945.28;;;15.05;100.00
47274;BME280;33007;49.082;19.306;2022-09-09T03:34:09;95948.75;;;15.00;100.00
47274;BME280;33007;49.082;19.306;2022-09-09T03:36:36;95957.97;;;15.02;100.00
47274;BME280;33007;49.082;19.306;2022-09-09T03:39:02;95952.22;;;14.89;100.00
47274;BME280;33007;49.082;19.306;2022-09-09T03:41:28;95966.13;;;14.85;100.00
47274;BME280;33007;49.082;19.306;2022-09-09T03:43:54;95947.97;;;14.71;100.00
47274;BME280;33007;49.082;19.306;2022-09-09T03:46:22;95944.97;;;14.69;100.00
47274;BME280;33007;49.082;19.306;2022-09-09T03:48:49;95960.41;;;14.78;100.00
47274;BME280;33007;49.082;19.306;2022-09-09T03:51:14;95930.53;;;14.52;100.00
47274;BME280;33007;49.082;19.306;2022-09-09T03:53:41;95958.38;;;14.61;100.00
47274;BME280;33007;49.082;19.306;2022-09-09T03:56:08;95957.13;;;14.57;100.00
47274;BME280;33007;49.082;19.306;2022-09-09T03:58:35;95977.53;;;14.67;100.00
47274;BME280;33007;49.082;19.306;2022-09-09T04:01:06;95980.75;;;14.65;100.00
47274;BME280;33007;49.082;19.306;2022-09-09T04:03:34;95965.50;;;14.42;100.00
47274;BME280;33007;49.082;19.306;2022-09-09T04:06:00;95950.56;;;14.26;100.00
47274;BME280;33007;49.082;19.306;2022-09-09T04:08:27;95965.25;;;14.40;100.00
47274;BME280;33007;49.082;19.306;2022-09-09T04:10:53;95946.38;;;14.36;100.00
47274;BME280;33007;49.082;19.306;2022-09-09T04:13:23;95949.38;;;14.44;100.00
47274;BME280;33007;49.082;19.306;2022-09-09T04:15:54;95943.38;;;14.34;100.00
47274;BME280;33007;49.082;19.306;2022-09-09T04:18:21;95967.31;;;14.51;100.00
47274;BME280;33007;49.082;19.306;2022-09-09T04:20:51;95960.38;;;14.61;100.00
47274;BME280;33007;49.082;19.306;2022-09-09T04:23:17;95970.06;;;14.56;100.00
47274;BME280;33007;49.082;19.306;2022-09-09T04:25:47;95963.28;;;14.46;100.00
47274;BME280;33007;49.082;19.306;2022-09-09T04:28:15;95950.09;;;14.33;100.00
47274;BME280;33007;49.082;19.306;2022-09-09T04:30:41;95952.34;;;14.40;100.00
47274;BME280;33007;49.082;19.306;2022-09-09T04:33:07;95949.09;;;14.42;100.00
47274;BME280;33007;49.082;19.306;2022-09-09T04:35:33;95974.81;;;14.73;100.00
47274;BME280;33007;49.082;19.306;2022-09-09T04:37:59;95977.31;;;14.82;100.00
47274;BME280;33007;49.082;19.306;2022-09-09T04:40:28;95977.31;;;14.87;100.00
47274;BME280;33007;49.082;19.306;2022-09-09T04:42:55;95960.66;;;14.80;100.00
47274;BME280;33007;49.082;19.306;2022-09-09T04:45:20;95949.97;;;14.71;100.00
47274;BME280;33007;49.082;19.306;2022-09-09T04:47:46;95966.84;;;14.80;100.00
47274;BME280;33007;49.082;19.306;2022-09-09T04:50:12;95941.00;;;14.64;100.00
47274;BME280;33007;49.082;19.306;2022-09-09T04:52:37;95956.19;;;14.82;100.00
47274;BME280;33007;49.082;19.306;2022-09-09T04:55:03;95968.13;;;14.85;100.00
47274;BME280;33007;49.082;19.306;2022-09-09T04:57:29;95969.13;;;14.93;100.00
47274;BME280;33007;49.082;19.306;2022-09-09T04:59:58;95957.19;;;14.85;100.00
47274;BME280;33007;49.082;19.306;2022-09-09T05:02:23;95974.59;;;14.99;100.00
47274;BME280;33007;49.082;19.306;2022-09-09T05:04:49;95971.59;;;14.97;100.00
47274;BME280;33007;49.082;19.306;2022-09-09T05:07:15;95953.22;;;14.91;100.00
47274;BME280;33007;49.082;19.306;2022-09-09T05:09:40;95945.25;;;14.82;100.00
47274;BME280;33007;49.082;19.306;2022-09-09T05:12:06;95973.13;;;15.09;100.00
47274;BME280;33007;49.082;19.306;2022-09-09T05:14:32;95966.91;;;14.97;100.00
47274;BME280;33007;49.082;19.306;2022-09-09T05:17:01;95972.63;;;14.99;100.00
47274;BME280;33007;49.082;19.306;2022-09-09T05:19:30;95953.47;;;14.82;100.00
47274;BME280;33007;49.082;19.306;2022-09-09T05:21:56;95936.31;;;14.82;100.00
47274;BME280;33007;49.082;19.306;2022-09-09T05:24:25;95975.09;;;14.97;100.00
47274;BME280;33007;49.082;19.306;2022-09-09T05:26:50;95973.59;;;14.90;100.00
47274;BME280;33007;49.082;19.306;2022-09-09T05:29:16;95973.84;;;14.87;100.00
47274;BME280;33007;49.082;19.306;2022-09-09T05:31:44;95981.31;;;14.86;100.00
47274;BME280;33007;49.082;19.306;2022-09-09T05:34:09;95995.22;;;15.00;100.00
47274;BME280;33007;49.082;19.306;2022-09-09T05:36:35;95980.31;;;14.89;100.00
47274;BME280;33007;49.082;19.306;2022-09-09T05:39:00;95981.53;;;14.88;100.00
47274;BME280;33007;49.082;19.306;2022-09-09T05:41:26;95971.84;;;14.87;100.00
47274;BME280;33007;49.082;19.306;2022-09-09T05:43:54;95980.81;;;14.88;100.00
47274;BME280;33007;49.082;19.306;2022-09-09T05:46:21;95995.97;;;14.94;100.00
47274;BME280;33007;49.082;19.306;2022-09-09T05:48:49;95989.53;;;14.98;100.00
47274;BME280;33007;49.082;19.306;2022-09-09T05:51:20;95992.72;;;14.96;100.00
47274;BME280;33007;49.082;19.306;2022-09-09T05:53:48;95992.75;;;15.07;100.00
47274;BME280;33007;49.082;19.306;2022-09-09T05:56:18;96000.47;;;15.03;100.00
47274;BME280;33007;49.082;19.306;2022-09-09T05:58:45;95972.09;;;14.89;100.00
47274;BME280;33007;49.082;19.306;2022-09-09T06:01:25;95990.28;;;15.04;100.00
47274;BME280;33007;49.082;19.306;2022-09-09T06:03:52;95983.78;;;15.12;100.00
47274;BME280;33007;49.082;19.306;2022-09-09T06:06:20;95991.75;;;15.16;100.00
47274;BME280;33007;49.082;19.306;2022-09-09T06:08:47;95975.84;;;15.14;100.00
47274;BME280;33007;49.082;19.306;2022-09-09T06:13:45;95969.88;;;15.16;100.00
47274;BME280;33007;49.082;19.306;2022-09-09T06:16:15;95987.03;;;15.28;100.00
47274;BME280;33007;49.082;19.306;2022-09-09T06:18:41;95992.28;;;15.31;100.00
47274;BME280;33007;49.082;19.306;2022-09-09T06:21:17;95973.13;;;15.20;100.00
47274;BME280;33007;49.082;19.306;2022-09-09T06:23:43;95975.13;;;15.25;100.00
47274;BME280;33007;49.082;19.306;2022-09-09T06:26:18;95982.81;;;15.27;100.00
47274;BME280;33007;49.082;19.306;2022-09-09T06:28:48;95992.28;;;15.26;100.00
47274;BME280;33007;49.082;19.306;2022-09-09T06:31:17;95999.97;;;15.33;100.00
47274;BME280;33007;49.082;19.306;2022-09-09T06:33:47;95999.72;;;15.42;100.00
47274;BME280;33007;49.082;19.306;2022-09-09T06:36:21;95995.75;;;15.37;100.00
47274;BME280;33007;49.082;19.306;2022-09-09T06:38:47;95988.56;;;15.34;100.00
47274;BME280;33007;49.082;19.306;2022-09-09T06:41:15;95985.31;;;15.30;100.00
47274;BME280;33007;49.082;19.306;2022-09-09T06:43:42;95991.75;;;15.38;100.00
47274;BME280;33007;49.082;19.306;2022-09-09T06:46:13;95989.78;;;15.33;100.00
47274;BME280;33007;49.082;19.306;2022-09-09T06:48:40;95987.31;;;15.30;100.00
47274;BME280;33007;49.082;19.306;2022-09-09T06:51:28;96006.19;;;15.44;100.00
47274;BME280;33007;49.082;19.306;2022-09-09T06:53:55;96010.66;;;15.53;100.00
47274;BME280;33007;49.082;19.306;2022-09-09T06:58:52;96007.94;;;15.70;100.00
47274;BME280;33007;49.082;19.306;2022-09-09T07:01:20;95985.31;;;15.64;100.00
47274;BME280;33007;49.082;19.306;2022-09-09T07:03:48;96012.41;;;15.84;100.00
47274;BME280;33007;49.082;19.306;2022-09-09T07:06:20;96002.94;;;15.91;100.00
47274;BME280;33007;49.082;19.306;2022-09-09T07:08:56;95991.47;;;15.87;100.00
47274;BME280;33007;49.082;19.306;2022-09-09T07:11:25;96005.16;;;16.04;100.00
47274;BME280;33007;49.082;19.306;2022-09-09T07:13:52;95988.97;;;16.00;100.00
47274;BME280;33007;49.082;19.306;2022-09-09T07:16:19;95998.63;;;16.12;100.00
47274;BME280;33007;49.082;19.306;2022-09-09T07:18:46;95982.03;;;15.93;100.00
47274;BME280;33007;49.082;19.306;2022-09-09T07:21:13;96009.09;;;16.14;100.00
47274;BME280;33007;49.082;19.306;2022-09-09T07:23:40;95988.69;;;16.15;100.00
47274;BME280;33007;49.082;19.306;2022-09-09T07:26:10;96006.28;;;16.36;100.00
47274;BME280;33007;49.082;19.306;2022-09-09T07:28:36;96002.78;;;16.41;100.00
47274;BME280;33007;49.082;19.306;2022-09-09T07:31:03;95973.41;;;16.36;100.00
47274;BME280;33007;49.082;19.306;2022-09-09T07:33:30;95978.34;;;16.43;100.00
47274;BME280;33007;49.082;19.306;2022-09-09T07:36:09;96011.63;;;16.75;100.00
47274;BME280;33007;49.082;19.306;2022-09-09T07:38:43;96011.13;;;16.71;100.00
47274;BME280;33007;49.082;19.306;2022-09-09T07:41:13;96005.34;;;16.81;100.00
47274;BME280;33007;49.082;19.306;2022-09-09T07:43:40;96020.44;;;16.98;100.00
47274;BME280;33007;49.082;19.306;2022-09-09T07:46:06;96018.19;;;17.02;100.00
47274;BME280;33007;49.082;19.306;2022-09-09T07:48:32;96008.25;;;16.99;99.64
47274;BME280;33007;49.082;19.306;2022-09-09T07:51:06;96005.47;;;17.05;100.00
47274;BME280;33007;49.082;19.306;2022-09-09T07:53:32;96022.81;;;17.19;100.00
47274;BME280;33007;49.082;19.306;2022-09-09T07:56:11;96026.25;;;17.25;100.00
47274;BME280;33007;49.082;19.306;2022-09-09T07:58:38;96025.94;;;17.34;100.00
47274;BME280;33007;49.082;19.306;2022-09-09T08:01:13;96016.75;;;17.32;100.00
47274;BME280;33007;49.082;19.306;2022-09-09T08:03:39;96030.47;;;17.32;98.26
47274;BME280;33007;49.082;19.306;2022-09-09T08:06:07;96005.53;;;17.29;99.20
47274;BME280;33007;49.082;19.306;2022-09-09T08:08:34;96018.94;;;17.39;98.01
47274;BME280;33007;49.082;19.306;2022-09-09T08:11:06;96027.81;;;17.50;97.19
47274;BME280;33007;49.082;19.306;2022-09-09T08:13:34;96022.13;;;17.48;95.25
47274;BME280;33007;49.082;19.306;2022-09-09T08:16:16;96036.47;;;17.60;97.74
47274;BME280;33007;49.082;19.306;2022-09-09T08:18:42;96036.47;;;17.60;97.39
47274;BME280;33007;49.082;19.306;2022-09-09T08:21:12;96021.81;;;17.52;94.93
47274;BME280;33007;49.082;19.306;2022-09-09T08:23:40;96017.53;;;17.57;95.23
47274;BME280;33007;49.082;19.306;2022-09-09T08:26:11;96040.38;;;17.76;91.66
47274;BME280;33007;49.082;19.306;2022-09-09T08:28:38;96028.59;;;17.81;92.13
47274;BME280;33007;49.082;19.306;2022-09-09T08:31:11;96025.47;;;17.96;92.25
47274;BME280;33007;49.082;19.306;2022-09-09T08:33:37;96033.13;;;18.03;89.52
47274;BME280;33007;49.082;19.306;2022-09-09T08:36:05;96010.19;;;18.00;91.70
47274;BME280;33007;49.082;19.306;2022-09-09T08:38:31;96031.19;;;18.22;88.76
47274;BME280;33007;49.082;19.306;2022-09-09T08:41:07;96031.41;;;18.24;87.95
47274;BME280;33007;49.082;19.306;2022-09-09T08:43:35;96009.47;;;18.19;86.82
47274;BME280;33007;49.082;19.306;2022-09-09T08:51:18;96004.25;;;18.40;86.04
47274;BME280;33007;49.082;19.306;2022-09-09T08:53:48;96006.56;;;18.54;88.37
47274;BME280;33007;49.082;19.306;2022-09-09T08:56:18;96006.59;;;18.73;86.65
47274;BME280;33007;49.082;19.306;2022-09-09T08:58:52;96006.22;;;18.82;86.16
47274;BME280;33007;49.082;19.306;2022-09-09T09:04:33;95997.94;;;19.01;84.44
47274;BME280;33007;49.082;19.306;2022-09-09T09:09:57;95986.44;;;19.03;79.57
47274;BME280;33007;49.082;19.306;2022-09-09T09:12:30;95990.72;;;19.17;83.10
47274;BME280;33007;49.082;19.306;2022-09-09T09:14:59;95994.88;;;19.24;80.22
47274;BME280;33007;49.082;19.306;2022-09-09T09:17:27;95990.56;;;19.28;78.38
47274;BME280;33007;49.082;19.306;2022-09-09T09:19:56;95999.91;;;19.38;77.10
47274;BME280;33007;49.082;19.306;2022-09-09T09:22:44;96002.34;;;19.42;74.56
47274;BME280;33007;49.082;19.306;2022-09-09T09:25:18;96001.53;;;19.47;76.88
47274;BME280;33007;49.082;19.306;2022-09-09T09:27:52;95992.13;;;19.56;74.86
47274;BME280;33007;49.082;19.306;2022-09-09T09:30:22;95997.84;;;19.58;77.20
47274;BME280;33007;49.082;19.306;2022-09-09T09:32:54;95976.19;;;19.49;75.26
47274;BME280;33007;49.082;19.306;2022-09-09T09:35:21;95994.38;;;19.71;77.01
47274;BME280;33007;49.082;19.306;2022-09-09T09:37:47;96004.25;;;19.79;75.51
47274;BME280;33007;49.082;19.306;2022-09-09T09:40:15;95983.28;;;19.76;75.82
47274;BME280;33007;49.082;19.306;2022-09-09T09:42:53;95978.44;;;19.82;76.20
47274;BME280;33007;49.082;19.306;2022-09-09T09:45:31;95988.16;;;19.97;72.08
47274;BME280;33007;49.082;19.306;2022-09-09T09:48:02;95978.53;;;20.03;73.75
47274;BME280;33007;49.082;19.306;2022-09-09T09:50:29;95980.34;;;20.01;72.14
47274;BME280;33007;49.082;19.306;2022-09-09T09:52:57;95983.31;;;20.16;71.17
47274;BME280;33007;49.082;19.306;2022-09-09T09:55:23;95963.25;;;20.02;69.42
47274;BME280;33007;49.082;19.306;2022-09-09T09:57:49;95988.38;;;20.12;70.97
47274;BME280;33007;49.082;19.306;2022-09-09T10:00:16;95990.19;;;20.09;64.23
47274;BME280;33007;49.082;19.306;2022-09-09T10:02:44;95977.88;;;19.97;64.61
47274;BME280;33007;49.082;19.306;2022-09-09T10:07:39;95968.03;;;20.02;68.30
47274;BME280;33007;49.082;19.306;2022-09-09T10:10:05;95980.56;;;20.16;67.00
47274;BME280;33007;49.082;19.306;2022-09-09T10:15:39;95980.72;;;20.45;68.31
47274;BME280;33007;49.082;19.306;2022-09-09T10:21:20;95983.47;;;20.71;73.74
47274;BME280;33007;49.082;19.306;2022-09-09T10:32:28;95984.75;;;21.04;64.42
47274;BME280;33007;49.082;19.306;2022-09-09T10:35:27;95976.28;;;21.23;64.62
47274;BME280;33007;49.082;19.306;2022-09-09T10:38:09;95965.97;;;21.24;65.67
47274;BME280;33007;49.082;19.306;2022-09-09T10:48:42;95992.72;;;21.91;62.17
47274;BME280;33007;49.082;19.306;2022-09-09T10:51:28;95995.72;;;22.22;68.32
47274;BME280;33007;49.082;19.306;2022-09-09T11:02:48;95969.31;;;22.57;56.55
47274;BME280;33007;49.082;19.306;2022-09-09T11:05:20;95973.28;;;22.85;58.06
47274;BME280;33007;49.082;19.306;2022-09-09T11:08:15;95972.47;;;23.13;55.32
47274;BME280;33007;49.082;19.306;2022-09-09T11:22:03;95974.69;;;23.22;56.02
47274;BME280;33007;49.082;19.306;2022-09-09T11:24:40;95967.66;;;23.21;57.35
47274;BME280;33007;49.082;19.306;2022-09-09T11:27:20;95976.91;;;23.23;54.42
47274;BME280;33007;49.082;19.306;2022-09-09T11:40:40;95954.59;;;23.75;59.98
47274;BME280;33007;49.082;19.306;2022-09-09T11:43:14;95960.69;;;23.89;58.05
47274;BME280;33007;49.082;19.306;2022-09-09T11:45:43;95968.41;;;24.05;59.13
47274;BME280;33007;49.082;19.306;2022-09-09T11:49:23;95966.19;;;24.19;56.95
47274;BME280;33007;49.082;19.306;2022-09-09T11:51:37;95960.81;;;24.21;56.18
47274;BME280;33007;49.082;19.306;2022-09-09T11:56:50;95954.88;;;24.40;56.00
47274;BME280;33007;49.082;19.306;2022-09-09T11:59:25;95951.06;;;24.61;54.36
47274;BME280;33007;49.082;19.306;2022-09-09T12:04:42;95949.22;;;24.63;50.17
47274;BME280;33007;49.082;19.306;2022-09-09T12:09:52;95956.84;;;24.95;52.85
47274;BME280;33007;49.082;19.306;2022-09-09T12:12:33;95956.97;;;25.05;53.47
47274;BME280;33007;49.082;19.306;2022-09-09T12:17:41;95947.91;;;25.04;51.40
47274;BME280;33007;49.082;19.306;2022-09-09T12:20:18;95942.72;;;25.01;50.76
47274;BME280;33007;49.082;19.306;2022-09-09T12:25:53;95943.88;;;24.58;47.27
47274;BME280;33007;49.082;19.306;2022-09-09T12:28:25;95931.34;;;24.34;47.83
47274;BME280;33007;49.082;19.306;2022-09-09T12:33:39;95936.78;;;24.16;47.91
47274;BME280;33007;49.082;19.306;2022-09-09T12:36:13;95922.22;;;24.00;46.59
47274;BME280;33007;49.082;19.306;2022-09-09T12:38:42;95929.75;;;24.15;44.73
47274;BME280;33007;49.082;19.306;2022-09-09T12:41:26;95924.38;;;24.17;46.31
47274;BME280;33007;49.082;19.306;2022-09-09T12:44:13;95938.09;;;24.15;45.16
47274;BME280;33007;49.082;19.306;2022-09-09T12:46:44;95922.22;;;24.00;44.13
47274;BME280;33007;49.082;19.306;2022-09-09T12:52:36;95925.56;;;23.91;47.98
47274;BME280;33007;49.082;19.306;2022-09-09T12:55:30;95928.38;;;23.76;45.27
47274;BME280;33007;49.082;19.306;2022-09-09T12:58:32;95924.47;;;23.79;49.61
47274;BME280;33007;49.082;19.306;2022-09-09T13:03:50;95901.97;;;23.44;44.04
47274;BME280;33007;49.082;19.306;2022-09-09T13:06:28;95901.03;;;23.42;49.14
47274;BME280;33007;49.082;19.306;2022-09-09T13:08:57;95920.59;;;23.51;49.49
47274;BME280;33007;49.082;19.306;2022-09-09T13:11:41;95903.44;;;23.45;50.64
47274;BME280;33007;49.082;19.306;2022-09-09T13:14:28;95910.09;;;23.50;49.47
47274;BME280;33007;49.082;19.306;2022-09-09T13:17:23;95921.72;;;23.56;50.00
47274;BME280;33007;49.082;19.306;2022-09-09T13:20:03;95911.53;;;23.59;49.44
47274;BME280;33007;49.082;19.306;2022-09-09T13:22:57;95911.34;;;23.87;48.52
47274;BME280;33007;49.082;19.306;2022-09-09T13:25:27;95899.84;;;24.06;45.96
47274;BME280;33007;49.082;19.306;2022-09-09T13:28:20;95899.41;;;24.25;47.38
47274;BME280;33007;49.082;19.306;2022-09-09T13:31:00;95899.09;;;24.13;47.94
47274;BME280;33007;49.082;19.306;2022-09-09T13:33:40;95897.63;;;23.97;49.00
47274;BME280;33007;49.082;19.306;2022-09-09T13:36:14;95889.53;;;23.84;48.87
47274;BME280;33007;49.082;19.306;2022-09-09T13:41:56;95871.44;;;23.75;46.60
47274;BME280;33007;49.082;19.306;2022-09-09T13:44:45;95882.69;;;23.85;47.47
47274;BME280;33007;49.082;19.306;2022-09-09T13:47:42;95881.97;;;23.84;46.14
47274;BME280;33007;49.082;19.306;2022-09-09T13:53:27;95873.44;;;23.97;45.95
47274;BME280;33007;49.082;19.306;2022-09-09T13:55:55;95885.44;;;24.08;47.16
47274;BME280;33007;49.082;19.306;2022-09-09T13:58:24;95883.59;;;23.95;44.76
47274;BME280;33007;49.082;19.306;2022-09-09T14:00:55;95883.81;;;23.89;50.40
47274;BME280;33007;49.082;19.306;2022-09-09T14:03:21;95864.25;;;23.72;46.43
47274;BME280;33007;49.082;19.306;2022-09-09T14:06:02;95853.00;;;23.55;47.96
47274;BME280;33007;49.082;19.306;2022-09-09T14:08:42;95861.69;;;23.51;48.41
47274;BME280;33007;49.082;19.306;2022-09-09T14:11:13;95852.09;;;23.37;46.50
47274;BME280;33007;49.082;19.306;2022-09-09T14:13:39;95850.59;;;23.43;47.39
47274;BME280;33007;49.082;19.306;2022-09-09T14:16:11;95872.22;;;23.45;48.40
47274;BME280;33007;49.082;19.306;2022-09-09T14:18:36;95847.31;;;23.30;49.96
47274;BME280;33007;49.082;19.306;2022-09-09T14:21:04;95841.00;;;23.21;49.02
47274;BME280;33007;49.082;19.306;2022-09-09T14:23:46;95868.16;;;23.31;51.20
47274;BME280;33007;49.082;19.306;2022-09-09T14:26:21;95849.31;;;23.21;50.69
47274;BME280;33007;49.082;19.306;2022-09-09T14:28:48;95843.44;;;23.10;49.27
47274;BME280;33007;49.082;19.306;2022-09-09T14:31:14;95853.03;;;23.24;57.57
47274;BME280;33007;49.082;19.306;2022-09-09T14:33:40;95830.69;;;23.07;57.23
47274;BME280;33007;49.082;19.306;2022-09-09T14:36:06;95842.13;;;23.11;55.95
47274;BME280;33007;49.082;19.306;2022-09-09T14:38:37;95831.97;;;22.98;55.15
47274;BME280;33007;49.082;19.306;2022-09-09T14:41:10;95843.41;;;22.94;58.42
47274;BME280;33007;49.082;19.306;2022-09-09T14:43:39;95856.72;;;23.04;57.54
47274;BME280;33007;49.082;19.306;2022-09-09T14:46:09;95832.88;;;22.85;53.78
47274;BME280;33007;49.082;19.306;2022-09-09T14:48:35;95843.94;;;22.78;57.76
47274;BME280;33007;49.082;19.306;2022-09-09T14:51:09;95838.56;;;22.72;56.90
47274;BME280;33007;49.082;19.306;2022-09-09T14:53:35;95831.72;;;22.58;56.45
47274;BME280;33007;49.082;19.306;2022-09-09T14:56:10;95854.59;;;22.58;55.98
47274;BME280;33007;49.082;19.306;2022-09-09T14:58:36;95841.06;;;22.32;56.23
47274;BME280;33007;49.082;19.306;2022-09-09T15:01:14;95839.75;;;22.25;57.74
47274;BME280;33007;49.082;19.306;2022-09-09T15:03:41;95866.72;;;22.40;55.75
47274;BME280;33007;49.082;19.306;2022-09-09T15:06:08;95867.28;;;22.38;56.96
47274;BME280;33007;49.082;19.306;2022-09-09T15:08:40;95868.38;;;22.35;56.50
47274;BME280;33007;49.082;19.306;2022-09-09T15:11:06;95870.56;;;22.29;57.54
47274;BME280;33007;49.082;19.306;2022-09-09T15:13:33;95854.84;;;22.16;58.30
47274;BME280;33007;49.082;19.306;2022-09-09T15:16:14;95860.38;;;22.16;58.73
47274;BME280;33007;49.082;19.306;2022-09-09T15:18:40;95848.50;;;22.01;57.80
47274;BME280;33007;49.082;19.306;2022-09-09T15:21:12;95864.91;;;22.06;59.20
47274;BME280;33007;49.082;19.306;2022-09-09T15:23:38;95859.72;;;22.03;58.61
47274;BME280;33007;49.082;19.306;2022-09-09T15:26:05;95859.91;;;22.05;61.74
47274;BME280;33007;49.082;19.306;2022-09-09T15:28:32;95842.69;;;21.83;56.20